Time;durP1;ratioP1;P1;durP2;ratioP2;P2;SDS_P1;SDS_P2;PMS_P1;PMS_P2;Temp;Humidity;BMP_temperature;BMP_pressure;BME280_temperature;BME280_humidity;BME280_pressure;Samples;Min_cycle;Max_cycle;Signal;HPM_P1;HPM_P2
2021/10/01 00:00:42;;;;;;;4.57;0.90;;;11.80;85.30;;;;;;4972819;28;20034;-75
2021/10/01 00:03:08;;;;;;;6.60;1.30;;;11.80;85.40;;;;;;4991310;28;20031;-75
2021/10/01 00:05:34;;;;;;;5.13;1.00;;;11.80;85.40;;;;;;4987449;28;20499;-75
2021/10/01 00:07:59;;;;;;;3.05;1.08;;;11.80;85.30;;;;;;4997928;28;20030;-75
2021/10/01 00:10:25;;;;;;;5.03;1.10;;;11.80;85.30;;;;;;4971978;28;20025;-75
2021/10/01 00:12:50;;;;;;;5.35;1.40;;;11.80;85.30;;;;;;4976835;28;20514;-75
2021/10/01 00:15:16;;;;;;;7.22;1.05;;;11.80;85.30;;;;;;4987614;28;20019;-76
2021/10/01 00:17:42;;;;;;;3.20;0.90;;;11.80;85.20;;;;;;4988883;28;20034;-75
2021/10/01 00:20:08;;;;;;;7.43;1.23;;;11.80;85.80;;;;;;4969323;28;20541;-75
2021/10/01 00:22:34;;;;;;;4.40;0.82;;;11.80;85.10;;;;;;4988287;28;20034;-75
2021/10/01 00:24:59;;;;;;;2.50;0.80;;;11.90;85.30;;;;;;4987205;28;20113;-75
2021/10/01 00:27:25;;;;;;;3.78;1.00;;;11.80;85.20;;;;;;4987103;28;20031;-75
2021/10/01 00:29:51;;;;;;;9.93;1.48;;;11.80;85.20;;;;;;4991398;28;20038;-75
2021/10/01 00:32:16;;;;;;;8.75;0.90;;;11.80;85.40;;;;;;4987599;28;20040;-75
2021/10/01 00:34:42;;;;;;;7.55;0.98;;;11.80;85.40;;;;;;4988300;28;20079;-76
2021/10/01 00:37:08;;;;;;;4.03;1.00;;;11.80;85.30;;;;;;4970338;28;20062;-75
2021/10/01 00:39:33;;;;;;;5.40;1.02;;;11.80;85.30;;;;;;4988337;28;20022;-75
2021/10/01 00:42:00;;;;;;;4.22;1.10;;;11.80;85.10;;;;;;4987842;28;20038;-75
2021/10/01 00:44:26;;;;;;;7.03;1.42;;;11.90;85.00;;;;;;4972825;28;20487;-75
2021/10/01 00:46:52;;;;;;;6.07;1.27;;;11.90;84.90;;;;;;4986296;28;20038;-75
2021/10/01 00:49:17;;;;;;;4.90;0.95;;;11.90;85.10;;;;;;4987683;28;20037;-76
2021/10/01 00:51:44;;;;;;;4.82;0.90;;;11.90;85.10;;;;;;4985925;28;20034;-75
2021/10/01 00:54:10;;;;;;;3.83;1.00;;;11.80;85.10;;;;;;4989685;28;20062;-77
2021/10/01 00:56:36;;;;;;;5.95;1.20;;;11.80;85.20;;;;;;4989912;28;20736;-77
2021/10/01 00:59:02;;;;;;;3.95;1.00;;;11.90;85.50;;;;;;4992036;28;20054;-77
2021/10/01 01:01:27;;;;;;;5.30;0.90;;;11.80;85.40;;;;;;4991911;28;20036;-77
2021/10/01 01:03:57;;;;;;;6.47;0.98;;;11.80;85.40;;;;;;4993076;28;20034;-77
2021/10/01 01:06:45;;;;;;;3.53;1.00;;;11.80;85.40;;;;;;4993029;28;20074;-77
2021/10/01 01:09:31;;;;;;;3.95;1.00;;;11.80;85.60;;;;;;5006024;28;20034;-77
2021/10/01 01:12:09;;;;;;;6.20;1.30;;;11.70;85.60;;;;;;4973790;28;20542;-78
2021/10/01 01:15:02;;;;;;;5.15;1.10;;;11.70;85.80;;;;;;5008649;28;20027;-78
2021/10/01 01:17:31;;;;;;;3.92;1.00;;;11.70;85.70;;;;;;4990633;28;20026;-78
2021/10/01 01:20:18;;;;;;;6.47;1.30;;;11.70;85.80;;;;;;4991645;28;20087;-78
2021/10/01 01:23:34;;;;;;;6.65;1.30;;;11.60;85.80;;;;;;5000094;28;20062;-78
2021/10/01 01:26:32;;;;;;;12.20;0.98;;;11.60;85.90;;;;;;5014626;28;20043;-77
2021/10/01 01:29:16;;;;;;;8.82;0.93;;;11.60;85.90;;;;;;4984705;28;20113;-77
2021/10/01 01:31:44;;;;;;;4.65;1.00;;;11.60;85.70;;;;;;4991858;28;20037;-77
2021/10/01 01:34:21;;;;;;;5.72;1.00;;;11.60;85.70;;;;;;4991405;28;20126;-77
2021/10/01 01:36:52;;;;;;;1.33;0.63;;;11.60;85.70;;;;;;4989779;28;20054;-77
2021/10/01 01:39:18;;;;;;;4.75;1.20;;;11.60;85.80;;;;;;4991029;28;20034;-78
2021/10/01 01:41:46;;;;;;;4.65;0.80;;;11.60;85.90;;;;;;4990714;28;20548;-77
2021/10/01 01:44:12;;;;;;;4.30;1.02;;;11.60;85.70;;;;;;4991419;28;20033;-77
2021/10/01 01:46:41;;;;;;;3.65;0.98;;;11.60;85.60;;;;;;4987803;28;20027;-78
2021/10/01 01:49:08;;;;;;;7.05;1.08;;;11.60;85.60;;;;;;4989160;28;20105;-78
2021/10/01 01:51:35;;;;;;;5.45;0.88;;;11.50;85.50;;;;;;4988109;28;20037;-78
2021/10/01 01:54:01;;;;;;;2.83;0.88;;;11.60;85.30;;;;;;4989619;28;20030;-77
2021/10/01 01:56:30;;;;;;;4.55;1.10;;;11.50;85.40;;;;;;4989434;28;20057;-77
2021/10/01 01:58:58;;;;;;;6.20;1.00;;;11.60;85.50;;;;;;4990026;28;20145;-77
2021/10/01 02:01:25;;;;;;;2.53;0.63;;;11.60;85.50;;;;;;4986453;28;20027;-78
2021/10/01 02:03:51;;;;;;;5.32;0.90;;;11.50;85.40;;;;;;4988929;28;20273;-78
2021/10/01 02:06:17;;;;;;;4.05;1.00;;;11.50;85.50;;;;;;4989218;28;20487;-78
2021/10/01 02:08:44;;;;;;;6.88;1.02;;;11.50;85.50;;;;;;4989294;28;20121;-77
2021/10/01 02:11:11;;;;;;;5.80;0.80;;;11.50;85.60;;;;;;4981650;28;20456;-77
2021/10/01 02:13:39;;;;;;;7.15;0.85;;;11.50;85.50;;;;;;4986497;28;20027;-78
2021/10/01 02:16:06;;;;;;;4.20;0.88;;;11.50;86.20;;;;;;4971573;28;20031;-78
2021/10/01 02:18:34;;;;;;;6.90;1.00;;;11.50;85.50;;;;;;4989577;28;20042;-78
2021/10/01 02:21:01;;;;;;;4.95;1.00;;;11.50;85.50;;;;;;4986502;28;20395;-77
2021/10/01 02:23:27;;;;;;;2.97;0.80;;;11.40;85.60;;;;;;4990329;28;20436;-77
2021/10/01 02:29:17;;;;;;;4.80;0.77;;;11.40;85.80;;;;;;5049059;28;20033;-77
2021/10/01 02:32:13;;;;;;;4.57;1.10;;;11.40;85.80;;;;;;4993550;28;20030;-78
2021/10/01 02:34:45;;;;;;;9.63;0.90;;;11.40;85.90;;;;;;4985504;28;20087;-78
2021/10/01 02:37:12;;;;;;;6.85;1.00;;;11.40;86.00;;;;;;4990029;28;20034;-78
2021/10/01 02:39:40;;;;;;;7.05;0.93;;;11.40;86.00;;;;;;4991124;28;20538;-77
2021/10/01 02:42:08;;;;;;;5.93;0.90;;;11.40;85.80;;;;;;4971085;28;20373;-77
2021/10/01 02:44:36;;;;;;;5.72;1.00;;;11.40;85.70;;;;;;4987754;28;20035;-77
2021/10/01 02:47:02;;;;;;;3.55;0.90;;;11.40;85.70;;;;;;4987436;28;20076;-78
2021/10/01 02:49:29;;;;;;;9.63;0.93;;;11.50;85.70;;;;;;4988907;28;20065;-78
2021/10/01 02:52:03;;;;;;;4.22;0.73;;;11.50;85.70;;;;;;4988597;28;20494;-78
2021/10/01 02:54:36;;;;;;;6.95;1.00;;;11.50;85.70;;;;;;4989427;28;20034;-78
2021/10/01 02:57:10;;;;;;;6.57;1.00;;;11.50;85.60;;;;;;4988626;28;20449;-78
2021/10/01 02:59:41;;;;;;;4.68;0.90;;;11.50;85.60;;;;;;4987370;28;20031;-78
2021/10/01 03:02:08;;;;;;;9.95;1.42;;;11.50;85.30;;;;;;4989681;28;20440;-78
2021/10/01 03:04:35;;;;;;;5.30;1.20;;;11.50;85.20;;;;;;4988722;28;20022;-78
2021/10/01 03:07:04;;;;;;;3.13;0.73;;;11.60;85.50;;;;;;4988912;28;20026;-77
2021/10/01 03:09:32;;;;;;;7.72;1.00;;;11.60;85.40;;;;;;4972054;28;20034;-77
2021/10/01 03:11:59;;;;;;;5.03;0.95;;;11.60;85.10;;;;;;4988970;28;20027;-77
2021/10/01 03:14:25;;;;;;;5.50;1.15;;;11.60;85.10;;;;;;4989248;28;20041;-77
2021/10/01 03:16:52;;;;;;;5.10;1.00;;;11.70;85.10;;;;;;4993416;28;20035;-77
2021/10/01 03:19:22;;;;;;;2.80;0.82;;;11.70;84.90;;;;;;4988587;28;20039;-77
2021/10/01 03:21:52;;;;;;;5.05;0.80;;;11.70;84.30;;;;;;4992981;28;20035;-77
2021/10/01 03:24:20;;;;;;;4.97;0.82;;;11.70;84.40;;;;;;4989414;28;20024;-77
2021/10/01 03:26:46;;;;;;;7.00;0.95;;;11.70;84.40;;;;;;4989753;28;20038;-79
2021/10/01 03:29:12;;;;;;;2.67;0.95;;;11.70;84.70;;;;;;4990062;28;20033;-79
2021/10/01 03:31:41;;;;;;;4.75;0.90;;;11.80;84.90;;;;;;5000152;28;20035;-79
2021/10/01 03:34:07;;;;;;;2.40;1.00;;;11.80;84.80;;;;;;4977895;28;20073;-79
2021/10/01 03:36:34;;;;;;;6.28;1.20;;;11.80;84.70;;;;;;4973400;28;20038;-79
2021/10/01 03:39:00;;;;;;;4.45;0.93;;;11.80;84.70;;;;;;4989542;28;20079;-79
2021/10/01 03:41:26;;;;;;;3.58;0.60;;;11.80;84.60;;;;;;4988846;28;20537;-79
2021/10/01 03:43:52;;;;;;;7.10;1.23;;;11.80;84.60;;;;;;4989927;28;20446;-79
2021/10/01 03:46:18;;;;;;;7.07;1.10;;;11.80;84.50;;;;;;4995839;28;20032;-78
2021/10/01 03:48:44;;;;;;;5.50;0.90;;;11.90;84.50;;;;;;4989235;28;20383;-79
2021/10/01 03:51:10;;;;;;;6.97;1.10;;;11.90;84.40;;;;;;4988012;28;20051;-79
2021/10/01 03:53:36;;;;;;;5.57;1.60;;;11.90;84.20;;;;;;4989692;28;20038;-76
2021/10/01 03:56:02;;;;;;;6.55;1.13;;;11.90;84.70;;;;;;4987201;28;20030;-76
2021/10/01 03:58:27;;;;;;;4.18;0.90;;;12.00;84.20;;;;;;4987082;28;20133;-75
2021/10/01 04:00:53;;;;;;;5.45;0.90;;;12.00;83.80;;;;;;4990928;28;20092;-75
2021/10/01 04:03:19;;;;;;;3.47;0.80;;;12.00;83.60;;;;;;4987120;28;20050;-75
2021/10/01 04:05:45;;;;;;;4.38;0.95;;;12.10;83.50;;;;;;4988289;28;20433;-75
2021/10/01 04:08:12;;;;;;;6.57;1.00;;;12.10;83.60;;;;;;4988783;28;20030;-76
2021/10/01 04:10:38;;;;;;;5.55;1.00;;;12.10;83.30;;;;;;4987123;28;20562;-75
2021/10/01 04:13:07;;;;;;;5.38;0.80;;;12.10;82.70;;;;;;4992660;28;20052;-76
2021/10/01 04:15:33;;;;;;;2.28;0.75;;;12.20;82.90;;;;;;4970197;28;20463;-76
2021/10/01 04:17:59;;;;;;;2.22;0.73;;;12.20;82.90;;;;;;4988926;28;20038;-75
2021/10/01 04:20:25;;;;;;;1.98;0.80;;;12.20;82.90;;;;;;4987698;28;20038;-76
2021/10/01 04:22:50;;;;;;;8.00;0.93;;;12.30;82.90;;;;;;4970557;28;20105;-76
2021/10/01 04:25:16;;;;;;;5.68;0.90;;;12.20;82.90;;;;;;4984341;28;20569;-75
2021/10/01 04:27:41;;;;;;;5.00;1.08;;;12.20;83.00;;;;;;4986402;28;20027;-76
2021/10/01 04:30:07;;;;;;;3.83;1.00;;;12.20;82.70;;;;;;4988718;28;20034;-76
2021/10/01 04:32:35;;;;;;;4.85;0.90;;;12.30;82.90;;;;;;4988518;28;20037;-76
2021/10/01 04:35:05;;;;;;;4.78;0.93;;;12.30;82.70;;;;;;4988929;28;20731;-76
2021/10/01 04:37:31;;;;;;;5.25;1.00;;;12.30;82.50;;;;;;4989730;28;20082;-76
2021/10/01 04:39:57;;;;;;;5.05;0.60;;;12.30;82.50;;;;;;4989777;28;20503;-76
2021/10/01 04:42:23;;;;;;;4.68;0.90;;;12.30;82.60;;;;;;4989473;28;20506;-76
2021/10/01 04:44:49;;;;;;;5.50;1.00;;;12.30;82.60;;;;;;4991457;28;20038;-76
2021/10/01 04:47:15;;;;;;;5.38;1.02;;;12.30;82.50;;;;;;4991235;28;20031;-76
2021/10/01 04:49:40;;;;;;;4.07;1.10;;;12.30;82.30;;;;;;4990891;28;20031;-76
2021/10/01 04:52:07;;;;;;;5.97;0.80;;;12.30;82.30;;;;;;4973747;28;20038;-76
2021/10/01 04:54:33;;;;;;;6.45;0.88;;;12.30;82.30;;;;;;4991174;28;20039;-76
2021/10/01 04:56:58;;;;;;;5.72;0.80;;;12.30;82.10;;;;;;4999539;28;20038;-75
2021/10/01 04:59:24;;;;;;;3.45;0.90;;;12.30;82.20;;;;;;5010962;28;20558;-75
2021/10/01 05:01:50;;;;;;;5.05;1.00;;;12.30;82.30;;;;;;4992681;28;20030;-75
2021/10/01 05:04:15;;;;;;;4.20;0.80;;;12.30;82.10;;;;;;4996582;28;20035;-76
2021/10/01 05:06:42;;;;;;;5.60;0.90;;;12.30;81.80;;;;;;4991460;28;20026;-76
2021/10/01 05:09:08;;;;;;;4.28;0.98;;;12.30;81.70;;;;;;4990499;28;20127;-76
2021/10/01 05:11:34;;;;;;;4.57;1.00;;;12.30;81.70;;;;;;4995609;28;20436;-76
2021/10/01 05:14:00;;;;;;;1.77;0.50;;;12.30;82.40;;;;;;4989908;28;20087;-75
2021/10/01 05:16:26;;;;;;;2.33;0.65;;;12.30;81.70;;;;;;4957632;28;20034;-76
2021/10/01 05:18:52;;;;;;;2.17;0.75;;;12.30;81.60;;;;;;4974917;28;20450;-75
2021/10/01 05:21:17;;;;;;;4.60;0.75;;;12.30;81.50;;;;;;4990527;28;20062;-75
2021/10/01 05:23:43;;;;;;;5.13;1.00;;;12.30;81.50;;;;;;4973288;28;20022;-76
2021/10/01 05:26:09;;;;;;;4.72;0.73;;;12.30;81.70;;;;;;4989660;28;20478;-75
2021/10/01 05:28:34;;;;;;;4.18;0.75;;;12.30;81.70;;;;;;4990604;28;20041;-75
2021/10/01 05:31:01;;;;;;;4.32;0.65;;;12.30;81.70;;;;;;4990501;28;20042;-75
2021/10/01 05:33:26;;;;;;;3.05;0.68;;;12.20;81.90;;;;;;4990588;28;20030;-75
2021/10/01 05:35:52;;;;;;;3.30;0.75;;;12.20;82.00;;;;;;4987160;28;20049;-76
2021/10/01 05:38:18;;;;;;;2.80;0.65;;;12.20;82.00;;;;;;4992612;28;20072;-75
2021/10/01 05:40:44;;;;;;;4.43;0.70;;;12.20;81.90;;;;;;4991080;28;20087;-75
2021/10/01 05:43:10;;;;;;;4.03;0.85;;;12.10;81.70;;;;;;4993186;28;20030;-76
2021/10/01 05:45:36;;;;;;;2.55;0.80;;;12.20;81.80;;;;;;4992329;28;20437;-79
2021/10/01 05:48:02;;;;;;;3.20;0.82;;;12.10;81.90;;;;;;4992779;28;20022;-79
2021/10/01 05:50:31;;;;;;;3.75;0.80;;;12.10;81.70;;;;;;4992969;28;20843;-79
2021/10/01 05:53:00;;;;;;;4.55;0.85;;;12.10;81.80;;;;;;4991733;28;20038;-79
2021/10/01 05:55:25;;;;;;;;;;;12.10;81.80;;;;;;4976282;28;20087;-79
2021/10/01 05:57:51;;;;;;;3.00;0.60;;;12.10;81.80;;;;;;4972193;28;19918;-79
2021/10/01 06:00:18;;;;;;;5.13;0.88;;;12.10;81.90;;;;;;4972276;28;20038;-79
2021/10/01 06:02:44;;;;;;;6.90;1.10;;;12.10;81.70;;;;;;4973531;28;20049;-79
2021/10/01 06:05:11;;;;;;;4.72;0.82;;;12.20;81.70;;;;;;4982374;28;20386;-79
2021/10/01 06:07:37;;;;;;;3.13;0.77;;;12.20;81.40;;;;;;4975643;28;20087;-79
2021/10/01 06:10:04;;;;;;;5.28;0.90;;;12.30;81.40;;;;;;4999347;28;20033;-79
2021/10/01 06:12:30;;;;;;;4.68;0.95;;;12.30;81.20;;;;;;5009075;28;20026;-79
2021/10/01 06:14:56;;;;;;;3.47;0.93;;;12.30;80.80;;;;;;4991111;28;20041;-79
2021/10/01 06:17:22;;;;;;;6.57;1.10;;;12.40;80.80;;;;;;4992635;28;20026;-79
2021/10/01 06:19:48;;;;;;;1.95;0.77;;;12.40;80.70;;;;;;4991675;28;20034;-79
2021/10/01 06:22:14;;;;;;;5.80;0.77;;;12.40;80.90;;;;;;5011165;28;20032;-79
2021/10/01 06:24:41;;;;;;;7.22;1.10;;;12.40;80.50;;;;;;4995758;28;20027;-79
2021/10/01 06:27:07;;;;;;;6.28;1.20;;;12.50;80.30;;;;;;4990772;28;20042;-79
2021/10/01 06:29:33;;;;;;;5.40;0.93;;;12.50;80.30;;;;;;4991216;28;20038;-79
2021/10/01 06:31:58;;;;;;;1.77;0.63;;;12.50;80.50;;;;;;4992485;28;20386;-79
2021/10/01 06:34:24;;;;;;;3.78;1.00;;;12.50;80.60;;;;;;4991037;28;20586;-80
2021/10/01 06:36:50;;;;;;;3.58;0.80;;;12.50;80.30;;;;;;4992300;28;20037;-81
2021/10/01 06:39:16;;;;;;;7.18;1.15;;;12.50;80.50;;;;;;4992329;28;20105;-80
2021/10/01 06:41:42;;;;;;;6.13;1.00;;;12.60;80.10;;;;;;4992492;28;20478;-79
2021/10/01 06:44:10;;;;;;;8.02;1.10;;;12.60;80.20;;;;;;4995558;28;20373;-79
2021/10/01 08:21:27;;;;;;;4.13;1.10;;;14.10;77.40;;;;;;4989715;28;20033;-76
2021/10/01 08:23:58;;;;;;;4.20;0.60;;;14.20;76.60;;;;;;4990344;28;20036;-76
2021/10/01 08:26:25;;;;;;;3.55;0.80;;;14.20;76.00;;;;;;4989990;28;20026;-76
2021/10/01 08:28:51;;;;;;;7.25;0.95;;;14.20;76.50;;;;;;4990338;28;20087;-74
2021/10/01 08:31:19;;;;;;;8.02;0.90;;;14.30;76.60;;;;;;4987928;28;20038;-74
2021/10/01 08:33:45;;;;;;;4.05;1.00;;;14.30;76.60;;;;;;4988576;28;20562;-74
2021/10/01 08:36:11;;;;;;;5.15;0.88;;;14.50;76.40;;;;;;4987467;28;20039;-74
2021/10/01 08:38:37;;;;;;;2.65;0.80;;;14.70;74.90;;;;;;4972373;28;20035;-73
2021/10/01 08:41:04;;;;;;;5.20;0.90;;;14.70;75.00;;;;;;4993085;28;20035;-74
2021/10/01 08:43:31;;;;;;;5.47;1.27;;;14.80;74.90;;;;;;4991796;28;20034;-74
2021/10/01 08:45:59;;;;;;;6.93;1.17;;;15.10;75.30;;;;;;4994264;28;20038;-74
2021/10/01 08:48:25;;;;;;;8.48;1.20;;;15.30;74.20;;;;;;4988567;28;20022;-73
2021/10/01 08:50:51;;;;;;;6.60;0.88;;;15.60;73.50;;;;;;4975840;28;20035;-74
2021/10/01 08:53:17;;;;;;;5.50;1.17;;;15.90;73.20;;;;;;4986649;28;20026;-74
2021/10/01 08:55:46;;;;;;;6.07;0.95;;;16.10;71.50;;;;;;4967681;28;20035;-74
2021/10/01 08:58:13;;;;;;;4.80;0.82;;;16.20;71.00;;;;;;4968768;28;20046;-74
2021/10/01 09:00:39;;;;;;;7.40;1.10;;;16.30;70.80;;;;;;4967575;28;20042;-74
2021/10/01 09:03:05;;;;;;;5.45;1.40;;;16.40;70.30;;;;;;4968972;28;20031;-74
2021/10/01 09:05:31;;;;;;;4.80;1.02;;;16.50;71.80;;;;;;4969099;28;20068;-73
2021/10/01 09:08:10;;;;;;;4.32;0.90;;;16.60;71.00;;;;;;4970820;28;20472;-74
2021/10/01 09:10:35;;;;;;;6.20;1.08;;;16.80;70.60;;;;;;4987103;28;20030;-74
2021/10/01 09:13:01;;;;;;;3.72;0.90;;;16.90;68.80;;;;;;4987219;28;20027;-73
2021/10/01 09:15:41;;;;;;;6.60;0.88;;;17.10;68.60;;;;;;4988210;28;20108;-74
2021/10/01 09:18:07;;;;;;;7.53;1.00;;;17.30;67.70;;;;;;4989054;28;20081;-74
2021/10/01 09:20:33;;;;;;;5.50;0.90;;;17.40;67.10;;;;;;5003003;28;20107;-74
2021/10/01 09:23:13;;;;;;;5.25;0.77;;;17.50;67.50;;;;;;4983315;28;20478;-74
2021/10/01 09:25:39;;;;;;;5.65;0.93;;;17.50;66.10;;;;;;5036924;28;20101;-74
2021/10/01 09:28:12;;;;;;;5.35;1.15;;;17.40;67.00;;;;;;4993694;28;20506;-74
2021/10/01 09:30:46;;;;;;;5.30;1.23;;;17.30;67.50;;;;;;4990962;28;20037;-77
2021/10/01 09:33:14;;;;;;;3.95;0.70;;;17.30;67.10;;;;;;4998715;28;20038;-77
2021/10/01 09:35:42;;;;;;;5.50;1.00;;;17.20;67.80;;;;;;4981616;28;20038;-77
2021/10/01 09:38:22;;;;;;;4.13;1.08;;;17.30;68.00;;;;;;4990943;28;20121;-77
2021/10/01 09:41:12;;;;;;;4.55;1.25;;;17.50;67.70;;;;;;4992287;28;20033;-77
2021/10/01 09:43:38;;;;;;;6.75;1.00;;;17.60;65.60;;;;;;4995698;28;20131;-75
2021/10/01 09:46:06;;;;;;;3.13;1.00;;;17.80;66.50;;;;;;4998228;28;20492;-75
2021/10/01 09:48:40;;;;;;;5.68;0.88;;;18.00;66.40;;;;;;4989957;28;20034;-76
2021/10/01 09:51:08;;;;;;;5.75;1.13;;;18.20;65.30;;;;;;4990719;28;20054;-76
2021/10/01 09:54:11;;;;;;;4.13;0.90;;;18.30;64.80;;;;;;5008390;28;20030;-76
2021/10/01 09:56:38;;;;;;;3.60;1.10;;;18.30;63.60;;;;;;4991210;28;20046;-76
2021/10/01 09:59:04;;;;;;;9.50;1.20;;;18.30;64.70;;;;;;4991727;28;20046;-75
2021/10/01 10:01:30;;;;;;;7.32;1.02;;;18.40;63.80;;;;;;4991135;28;20161;-76
2021/10/01 10:03:56;;;;;;;7.85;1.30;;;18.50;63.20;;;;;;4991535;28;20027;-77
2021/10/01 10:06:22;;;;;;;5.93;0.88;;;18.50;62.20;;;;;;4974720;28;20030;-76
2021/10/01 10:08:47;;;;;;;7.60;1.10;;;18.70;62.30;;;;;;5001551;28;20145;-77
2021/10/01 10:11:16;;;;;;;5.90;1.10;;;18.70;62.20;;;;;;4991914;28;20073;-77
2021/10/01 10:13:43;;;;;;;8.70;1.20;;;18.90;61.50;;;;;;4991693;28;20018;-79
2021/10/01 10:16:29;;;;;;;5.88;1.00;;;19.00;60.60;;;;;;4990217;28;20099;-77
2021/10/01 10:19:20;;;;;;;9.32;1.25;;;19.00;61.20;;;;;;4991840;28;20117;-76
2021/10/01 10:21:52;;;;;;;4.68;1.20;;;19.00;61.50;;;;;;5003954;28;20076;-76
2021/10/01 10:24:17;;;;;;;2.83;1.05;;;19.10;61.40;;;;;;4991269;28;20022;-76
2021/10/01 10:26:44;;;;;;;7.28;1.05;;;19.10;60.10;;;;;;4990683;28;20105;-76
2021/10/01 10:29:11;;;;;;;6.32;0.90;;;19.10;60.60;;;;;;4985933;28;20042;-76
2021/10/01 10:31:43;;;;;;;7.72;1.00;;;19.00;59.90;;;;;;4990710;28;20054;-76
2021/10/01 10:34:51;;;;;;;6.50;1.23;;;18.90;59.80;;;;;;4989493;28;20122;-76
2021/10/01 10:37:20;;;;;;;3.30;0.90;;;18.70;61.70;;;;;;4994651;28;20218;-76
2021/10/01 10:39:48;;;;;;;4.78;0.73;;;18.50;62.30;;;;;;4989705;28;20034;-76
2021/10/01 10:42:17;;;;;;;5.63;0.93;;;18.40;61.70;;;;;;4990728;28;20037;-76
2021/10/01 10:44:46;;;;;;;6.93;0.90;;;18.40;62.60;;;;;;4998626;28;20034;-76
2021/10/01 10:47:42;;;;;;;4.50;0.90;;;18.40;63.20;;;;;;5005728;28;20029;-78
2021/10/01 10:50:33;;;;;;;9.57;1.10;;;18.30;61.90;;;;;;4991105;28;20478;-78
2021/10/01 10:53:04;;;;;;;6.95;0.85;;;18.30;62.60;;;;;;4991189;28;20034;-78
2021/10/01 10:55:50;;;;;;;7.60;0.88;;;18.30;63.60;;;;;;4978095;28;20030;-78
2021/10/01 10:58:22;;;;;;;4.95;0.80;;;18.30;63.90;;;;;;4987311;28;20125;-79
2021/10/01 11:01:05;;;;;;;4.85;1.10;;;18.50;64.00;;;;;;4990169;28;20096;-79
2021/10/01 11:03:35;;;;;;;5.57;1.30;;;18.70;62.60;;;;;;4988806;28;20022;-80
2021/10/01 11:06:18;;;;;;;2.05;0.85;;;19.00;62.50;;;;;;4991744;28;20084;-81
2021/10/01 11:08:45;;;;;;;4.70;0.80;;;19.20;62.90;;;;;;4990668;28;20079;-80
2021/10/01 11:11:41;;;;;;;3.08;0.93;;;19.30;61.80;;;;;;4989766;28;20030;-80
2021/10/01 11:14:16;;;;;;;6.05;1.10;;;19.40;62.30;;;;;;4973203;28;20556;-78
2021/10/01 11:17:06;;;;;;;11.95;1.33;;;19.40;60.90;;;;;;4990186;28;20475;-79
2021/10/01 11:19:36;;;;;;;5.95;1.35;;;19.50;60.50;;;;;;4982769;28;20435;-79
2021/10/01 11:22:30;;;;;;;2.97;0.90;;;19.60;60.40;;;;;;4986818;28;20088;-79
2021/10/01 11:25:05;;;;;;;3.70;1.05;;;19.70;59.80;;;;;;4990081;28;20360;-79
2021/10/01 11:27:32;;;;;;;3.45;0.75;;;19.90;60.10;;;;;;4990144;28;20037;-80
2021/10/01 11:29:58;;;;;;;5.70;1.00;;;20.00;60.80;;;;;;4990126;28;20034;-80
2021/10/01 11:32:27;;;;;;;3.95;0.98;;;20.10;59.80;;;;;;4991375;28;20843;-80
2021/10/01 11:35:01;;;;;;;5.30;1.00;;;20.10;60.00;;;;;;4991426;28;20493;-80
2021/10/01 11:37:33;;;;;;;6.05;1.00;;;20.00;58.40;;;;;;4991436;28;20058;-79
2021/10/01 11:40:22;;;;;;;8.35;1.20;;;19.90;58.60;;;;;;4990772;28;20032;-80
2021/10/01 11:42:51;;;;;;;6.43;1.02;;;19.80;58.90;;;;;;4991194;28;20360;-79
2021/10/01 11:45:18;;;;;;;;;;;19.80;58.80;;;;;;4991552;28;20022;-79
2021/10/01 11:48:09;;;;;;;6.15;0.88;;;19.80;59.30;;;;;;4989443;28;20289;-79
2021/10/01 11:50:41;;;;;;;4.55;1.10;;;19.70;60.10;;;;;;4989437;28;20033;-81
2021/10/01 11:53:15;;;;;;;6.18;0.98;;;19.70;60.50;;;;;;4988985;28;20128;-78
2021/10/01 11:55:53;;;;;;;7.25;0.95;;;19.70;61.50;;;;;;4989425;28;20045;-78
2021/10/01 11:58:20;;;;;;;3.67;0.90;;;19.70;62.20;;;;;;4990653;28;20054;-79
2021/10/01 12:00:47;;;;;;;4.63;0.90;;;19.70;61.20;;;;;;4993293;28;20042;-79
2021/10/01 12:03:18;;;;;;;10.10;1.20;;;19.60;60.90;;;;;;4989282;28;20034;-80
2021/10/01 12:05:49;;;;;;;5.85;1.10;;;19.60;61.10;;;;;;4992097;28;20014;-80
2021/10/01 12:08:23;;;;;;;4.05;0.90;;;19.50;60.40;;;;;;4990137;28;20385;-79
2021/10/01 12:11:02;;;;;;;7.50;1.00;;;19.50;59.30;;;;;;5007737;28;20038;-83
2021/10/01 12:13:29;;;;;;;;;;;19.50;61.30;;;;;;4971109;28;20096;-83
2021/10/01 12:16:02;;;;;;;3.88;0.90;;;19.50;61.90;;;;;;4989298;28;20300;-81
2021/10/01 12:18:44;;;;;;;4.63;1.08;;;19.60;62.10;;;;;;4991972;28;20160;-81
2021/10/01 12:21:10;;;;;;;5.50;1.00;;;19.60;61.50;;;;;;5010248;28;20033;-80
2021/10/01 12:23:40;;;;;;;3.78;1.00;;;19.70;61.60;;;;;;5000410;28;20023;-81
2021/10/01 12:26:15;;;;;;;4.32;0.90;;;19.70;62.60;;;;;;4999158;28;20044;-80
2021/10/01 12:28:42;;;;;;;8.05;1.08;;;19.70;62.40;;;;;;5010886;28;20075;-80
2021/10/01 12:31:08;;;;;;;5.43;1.08;;;19.80;61.80;;;;;;5010470;28;20079;-79
2021/10/01 12:33:34;;;;;;;4.28;0.98;;;19.70;60.80;;;;;;5005255;28;20118;-79
2021/10/01 12:35:59;;;;;;;2.28;0.82;;;19.70;61.20;;;;;;4990860;28;20054;-80
2021/10/01 12:38:25;;;;;;;9.40;0.70;;;19.60;61.70;;;;;;4988458;28;20027;-80
2021/10/01 12:41:28;;;;;;;5.07;0.90;;;19.70;60.90;;;;;;4953854;28;20038;-80
2021/10/01 12:43:57;;;;;;;7.68;1.10;;;19.60;61.00;;;;;;4991316;28;20545;-81
2021/10/01 12:46:33;;;;;;;6.70;1.10;;;19.60;60.30;;;;;;4986292;28;20511;-81
2021/10/01 12:49:34;;;;;;;4.03;0.90;;;19.60;60.60;;;;;;4972153;28;20356;-79
2021/10/01 12:52:05;;;;;;;5.32;1.35;;;19.50;60.60;;;;;;4987755;28;20043;-81
2021/10/01 12:54:35;;;;;;;3.22;0.98;;;19.50;60.30;;;;;;4992680;28;20453;-78
2021/10/01 12:57:18;;;;;;;6.70;1.27;;;19.50;60.90;;;;;;4993096;28;20057;-78
2021/10/01 12:59:48;;;;;;;23.13;1.58;;;19.50;60.90;;;;;;4973935;28;20504;-83
2021/10/01 13:02:18;;;;;;;9.63;1.17;;;19.60;61.40;;;;;;4992338;28;20027;-80
2021/10/01 13:04:52;;;;;;;6.70;0.85;;;19.60;60.50;;;;;;4993656;28;20102;-81
2021/10/01 13:07:27;;;;;;;10.52;1.48;;;19.50;60.10;;;;;;4993389;28;20019;-81
2021/10/01 13:09:56;;;;;;;5.07;1.60;;;19.50;60.20;;;;;;4992544;28;20045;-81
2021/10/01 13:12:38;;;;;;;15.27;4.38;;;19.50;60.40;;;;;;4991624;28;20037;-81
2021/10/01 13:15:14;;;;;;;5.78;1.85;;;19.50;60.30;;;;;;4998698;28;20431;-80
2021/10/01 13:17:40;;;;;;;10.50;1.20;;;19.40;59.10;;;;;;4990838;28;20402;-81
2021/10/01 13:20:08;;;;;;;4.38;1.00;;;19.40;60.50;;;;;;5010073;28;20087;-81
2021/10/01 13:22:53;;;;;;;4.18;0.90;;;19.50;60.50;;;;;;5006130;28;20058;-81
2021/10/01 13:25:27;;;;;;;6.55;0.82;;;19.40;59.70;;;;;;4988358;28;20087;-81
2021/10/01 13:27:55;;;;;;;4.03;0.80;;;19.40;60.30;;;;;;4993290;28;20030;-80
2021/10/01 13:30:21;;;;;;;3.80;0.90;;;19.40;60.30;;;;;;4992037;28;20440;-80
2021/10/01 13:32:48;;;;;;;3.70;0.80;;;19.40;60.50;;;;;;4993150;28;20062;-81
2021/10/01 13:35:15;;;;;;;5.65;0.95;;;19.40;60.10;;;;;;4993104;28;20058;-79
2021/10/01 13:37:43;;;;;;;3.88;0.85;;;19.40;60.80;;;;;;4988890;28;20483;-80
2021/10/01 13:40:09;;;;;;;8.77;1.45;;;19.40;61.20;;;;;;4992990;28;20026;-78
2021/10/01 13:42:35;;;;;;;3.55;1.02;;;19.30;62.20;;;;;;4992903;28;20026;-79
2021/10/01 13:45:00;;;;;;;7.47;1.27;;;19.30;60.40;;;;;;4977213;28;20071;-75
2021/10/01 13:47:26;;;;;;;3.63;1.02;;;19.20;61.50;;;;;;4986628;28;20031;-75
2021/10/01 13:49:51;;;;;;;4.05;1.00;;;19.20;62.20;;;;;;4980153;28;20452;-75
2021/10/01 13:52:17;;;;;;;4.85;0.80;;;19.20;61.90;;;;;;4982753;28;20046;-76
2021/10/01 13:54:43;;;;;;;4.43;1.08;;;19.10;61.70;;;;;;4981698;28;20031;-75
2021/10/01 13:57:08;;;;;;;2.95;1.00;;;19.10;62.60;;;;;;4972265;28;20031;-74
2021/10/01 13:59:34;;;;;;;4.30;0.80;;;19.10;61.70;;;;;;4993452;28;20062;-75
2021/10/01 14:01:59;;;;;;;3.30;0.98;;;19.10;63.30;;;;;;4994947;28;20027;-76
2021/10/01 14:04:27;;;;;;;6.72;1.10;;;19.00;61.70;;;;;;4970483;28;20087;-76
2021/10/01 14:06:53;;;;;;;5.60;0.80;;;19.10;62.20;;;;;;4980589;28;20456;-76
2021/10/01 14:09:18;;;;;;;4.63;0.80;;;19.00;62.50;;;;;;5004366;28;20031;-76
2021/10/01 14:11:44;;;;;;;5.03;0.80;;;19.00;62.60;;;;;;4984531;28;20590;-75
2021/10/01 14:14:10;;;;;;;6.55;0.98;;;19.10;62.90;;;;;;4971184;28;20045;-74
2021/10/01 14:16:35;;;;;;;4.07;0.98;;;19.00;62.30;;;;;;4982573;28;20065;-76
2021/10/01 14:19:01;;;;;;;2.35;0.70;;;19.00;61.40;;;;;;4987132;28;20065;-76
2021/10/01 14:21:26;;;;;;;6.55;0.98;;;18.90;61.70;;;;;;4988493;28;20031;-76
2021/10/01 14:23:52;;;;;;;4.47;0.90;;;18.90;61.90;;;;;;4989215;28;20030;-76
2021/10/01 14:26:18;;;;;;;5.68;1.08;;;18.80;62.50;;;;;;4989998;28;20042;-77
2021/10/01 14:28:44;;;;;;;7.38;1.08;;;18.80;62.60;;;;;;4984593;28;20027;-77
2021/10/01 14:31:10;;;;;;;3.08;1.02;;;18.80;63.20;;;;;;4970490;28;20045;-77
2021/10/01 14:33:35;;;;;;;4.68;0.95;;;18.70;63.50;;;;;;4984367;28;20042;-77
2021/10/01 14:36:01;;;;;;;6.18;1.00;;;18.60;63.60;;;;;;4979207;28;20039;-77
2021/10/01 14:38:27;;;;;;;5.55;1.17;;;18.60;63.10;;;;;;4980746;28;20031;-77